Time;durP1;ratioP1;P1;durP2;ratioP2;P2;SDS_P1;SDS_P2;PMS_P1;PMS_P2;Temp;Humidity;BMP_temperature;BMP_pressure;BME280_temperature;BME280_humidity;BME280_pressure;Samples;Min_cycle;Max_cycle;Signal;HPM_P1;HPM_P2
2022/02/06 00:00:22;;;;;;;13.50;2.90;;;10.30;85.00;;;;;;5015722;28;20042;-52
2022/02/06 00:02:50;;;;;;;10.38;2.60;;;10.30;84.90;;;;;;5015798;28;20037;-56
2022/02/06 00:05:17;;;;;;;16.55;2.88;;;10.30;85.10;;;;;;5030858;28;20092;-54
2022/02/06 00:07:47;;;;;;;9.95;2.50;;;10.30;85.10;;;;;;5016437;28;20044;-55
2022/02/06 00:10:14;;;;;;;15.13;3.30;;;10.30;85.10;;;;;;5030901;28;20468;-55
2022/02/06 00:12:41;;;;;;;11.77;2.42;;;10.30;85.30;;;;;;5015599;28;20034;-55
2022/02/06 00:15:08;;;;;;;14.18;2.63;;;10.30;85.50;;;;;;5015537;28;20050;-55
2022/02/06 00:17:34;;;;;;;10.75;2.25;;;10.20;85.30;;;;;;5015532;28;20042;-52
2022/02/06 00:20:01;;;;;;;12.90;3.30;;;10.20;85.30;;;;;;5030576;28;20065;-54
2022/02/06 00:30:25;;;;;;;12.18;2.67;;;10.30;85.30;;;;;;5015543;28;20107;-56
2022/02/06 00:33:49;;;;;;;10.45;2.30;;;10.20;85.20;;;;;;5015437;28;20117;-55
2022/02/06 00:41:25;;;;;;;12.10;2.10;;;10.20;85.60;;;;;;5013137;28;20404;-57
2022/02/06 00:43:24;;;;;;;15.77;2.58;;;10.20;85.70;;;;;;5015354;28;20413;-50
2022/02/06 00:45:50;;;;;;;10.25;2.03;;;10.20;85.90;;;;;;5018452;28;20104;-54
2022/02/06 00:48:24;;;;;;;12.50;2.97;;;10.20;85.80;;;;;;5014958;28;20038;-54
2022/02/06 00:51:02;;;;;;;8.95;1.98;;;10.20;85.80;;;;;;5017464;28;20041;-54
2022/02/06 00:53:29;;;;;;;8.65;1.85;;;10.20;85.90;;;;;;5048311;28;20042;-56
2022/02/06 00:55:56;;;;;;;12.27;2.03;;;10.20;85.70;;;;;;5014979;28;20038;-52
2022/02/06 00:58:22;;;;;;;9.10;2.08;;;10.20;85.60;;;;;;5016131;28;20038;-50
2022/02/06 01:00:49;;;;;;;10.98;2.17;;;10.20;85.80;;;;;;5016883;28;20046;-54
2022/02/06 01:03:16;;;;;;;12.27;2.15;;;10.20;85.60;;;;;;5014881;28;20053;-51
2022/02/06 01:05:52;;;;;;;8.55;1.95;;;10.20;85.50;;;;;;5014414;28;20112;-52
2022/02/06 01:08:19;;;;;;;11.40;2.25;;;10.20;85.50;;;;;;5013437;28;20042;-56
2022/02/06 01:10:46;;;;;;;10.05;2.03;;;10.20;85.40;;;;;;5014661;28;20038;-55
2022/02/06 01:18:36;;;;;;;8.30;1.67;;;10.20;85.80;;;;;;5008096;28;20049;-52
2022/02/06 01:21:11;;;;;;;11.65;2.40;;;10.20;86.10;;;;;;5014542;28;20123;-51
2022/02/06 01:27:09;;;;;;;8.80;1.92;;;10.10;87.10;;;;;;5014522;28;20439;-58
2022/02/06 09:04:08;;;;;;;9.85;1.27;;;9.90;92.40;;;;;;5094370;27;1502012;-52
2022/02/06 09:06:37;;;;;;;9.77;1.67;;;9.90;92.00;;;;;;5124717;28;20036;-49
2022/02/06 09:09:04;;;;;;;8.32;1.60;;;10.00;92.10;;;;;;5131071;27;20040;-53
2022/02/06 09:11:31;;;;;;;6.95;1.73;;;10.10;91.40;;;;;;5113227;27;20067;-51
2022/02/06 09:13:58;;;;;;;6.13;1.38;;;10.10;90.70;;;;;;5111810;28;20109;-56
2022/02/06 09:16:28;;;;;;;5.20;1.58;;;10.10;91.00;;;;;;5105993;28;20470;-52
2022/02/06 09:18:54;;;;;;;6.47;1.38;;;10.10;90.70;;;;;;5106415;28;20055;-56
2022/02/06 09:21:23;;;;;;;5.90;1.50;;;10.10;90.20;;;;;;5113296;28;20040;-53
2022/02/06 09:23:51;;;;;;;5.90;1.17;;;10.10;90.00;;;;;;5106150;28;20093;-56
2022/02/06 09:26:18;;;;;;;4.32;1.10;;;10.10;89.00;;;;;;5124386;28;20078;-57
2022/02/06 09:28:45;;;;;;;6.65;1.50;;;10.20;88.80;;;;;;5104723;28;20040;-59
2022/02/06 09:31:11;;;;;;;5.47;1.35;;;10.20;88.70;;;;;;5127126;28;20426;-57
2022/02/06 09:36:05;;;;;;;4.40;1.30;;;10.30;87.60;;;;;;5110843;28;20089;-54
2022/02/06 09:38:32;;;;;;;5.90;1.25;;;10.30;88.00;;;;;;5110040;28;20383;-55
2022/02/06 09:40:58;;;;;;;3.85;1.00;;;10.30;87.10;;;;;;5110888;28;20039;-54
2022/02/06 09:43:25;;;;;;;5.35;1.00;;;10.30;86.60;;;;;;5128202;28;20482;-56
2022/02/06 09:45:52;;;;;;;3.67;1.02;;;10.40;87.50;;;;;;5129228;28;20070;-55
2022/02/06 09:48:19;;;;;;;4.05;0.90;;;10.30;86.70;;;;;;5130399;28;20039;-50
2022/02/06 09:50:45;;;;;;;4.85;0.95;;;10.40;87.90;;;;;;5130378;28;20367;-55
2022/02/06 09:53:12;;;;;;;3.85;1.00;;;10.30;87.80;;;;;;5118430;28;20051;-50
2022/02/06 09:55:39;;;;;;;4.43;1.10;;;10.40;87.60;;;;;;5109324;28;20555;-55
2022/02/06 09:58:45;;;;;;;3.75;0.77;;;10.30;88.20;;;;;;5109068;28;20044;-53
2022/02/06 10:01:05;;;;;;;4.47;0.70;;;10.40;88.70;;;;;;5109267;28;20059;-53
2022/02/06 10:03:31;;;;;;;3.78;0.80;;;10.30;89.60;;;;;;5109532;28;20048;-50
2022/02/06 10:05:58;;;;;;;3.95;0.75;;;10.20;89.60;;;;;;5109207;28;20123;-52
2022/02/06 10:08:30;;;;;;;3.15;0.95;;;10.10;90.10;;;;;;5108810;28;20035;-52
2022/02/06 10:10:57;;;;;;;3.05;0.82;;;10.00;90.20;;;;;;5110194;28;20051;-57
2022/02/06 10:13:23;;;;;;;3.53;0.93;;;10.00;88.20;;;;;;5108303;28;20052;-54
2022/02/06 10:15:50;;;;;;;4.10;1.02;;;10.00;86.70;;;;;;5096146;28;20377;-56
2022/02/06 10:18:17;;;;;;;2.10;0.70;;;10.20;85.40;;;;;;5096239;28;20402;-55
2022/02/06 10:20:46;;;;;;;4.20;1.08;;;10.30;84.20;;;;;;5096111;28;20146;-55
2022/02/06 10:23:14;;;;;;;1.73;0.43;;;10.30;81.50;;;;;;5093262;28;20054;-54
2022/02/06 10:25:48;;;;;;;1.85;0.60;;;10.40;80.00;;;;;;5092307;28;20036;-55
2022/02/06 10:28:33;;;;;;;2.83;1.05;;;10.30;77.90;;;;;;5095429;28;20046;-56
2022/02/06 10:31:00;;;;;;;;;;;10.30;78.30;;;;;;5101185;28;20054;-54
2022/02/06 10:33:27;;;;;;;1.83;0.80;;;10.30;77.20;;;;;;5102661;28;19934;-53
2022/02/06 10:35:54;;;;;;;1.67;0.60;;;10.20;76.50;;;;;;5095930;28;20044;-54
2022/02/06 10:38:21;;;;;;;1.90;0.50;;;10.30;77.00;;;;;;5095742;28;20112;-58
2022/02/06 10:40:47;;;;;;;2.58;0.50;;;10.30;76.10;;;;;;5096006;28;20392;-56
2022/02/06 10:43:15;;;;;;;2.25;0.50;;;10.30;76.80;;;;;;5094852;28;20082;-55
2022/02/06 10:45:42;;;;;;;2.40;0.73;;;10.30;77.10;;;;;;5095736;28;20044;-53
2022/02/06 10:48:09;;;;;;;1.30;0.52;;;10.40;77.70;;;;;;5094571;28;20166;-55
2022/02/06 10:50:38;;;;;;;1.45;0.50;;;10.40;76.70;;;;;;5095467;28;20036;-52
2022/02/06 10:53:05;;;;;;;3.30;0.68;;;10.40;76.10;;;;;;5095591;28;20036;-53
2022/02/06 10:55:32;;;;;;;2.22;0.70;;;10.40;76.50;;;;;;5094199;28;20048;-51
2022/02/06 10:57:58;;;;;;;1.40;0.47;;;10.40;75.80;;;;;;5094605;28;20115;-53
2022/02/06 11:00:25;;;;;;;1.20;0.43;;;10.40;76.40;;;;;;5094162;28;20076;-50
2022/02/06 11:03:09;;;;;;;2.47;0.60;;;10.40;75.90;;;;;;5094969;28;20091;-55
2022/02/06 11:05:40;;;;;;;1.40;0.50;;;10.40;74.90;;;;;;5115227;28;20051;-58
2022/02/06 11:08:07;;;;;;;4.40;0.60;;;10.40;73.80;;;;;;5115058;28;20061;-60
2022/02/06 11:10:35;;;;;;;3.28;0.63;;;10.40;73.90;;;;;;5114940;28;20093;-60
2022/02/06 11:13:05;;;;;;;1.27;0.40;;;10.40;73.80;;;;;;5089042;28;20040;-57
2022/02/06 11:15:32;;;;;;;1.77;0.60;;;10.40;75.00;;;;;;5088066;28;20044;-61
2022/02/06 11:17:59;;;;;;;1.85;0.57;;;10.50;74.20;;;;;;5095162;28;20036;-57
2022/02/06 11:20:27;;;;;;;1.92;0.50;;;10.50;73.50;;;;;;5101034;28;20046;-58
2022/02/06 11:22:58;;;;;;;1.20;0.40;;;10.50;72.90;;;;;;5114643;27;20503;-60
2022/02/06 11:25:25;;;;;;;1.00;0.40;;;10.50;72.80;;;;;;5102944;28;20040;-54
2022/02/06 11:27:52;;;;;;;1.60;0.50;;;10.50;72.00;;;;;;5101677;28;20039;-56
2022/02/06 11:30:19;;;;;;;2.55;0.98;;;10.50;72.30;;;;;;5107176;28;20109;-58
2022/02/06 11:32:46;;;;;;;1.80;0.45;;;10.50;72.30;;;;;;5092894;28;20045;-57
2022/02/06 11:35:17;;;;;;;1.38;0.40;;;10.50;72.80;;;;;;5091751;28;20047;-56
2022/02/06 11:45:51;;;;;;;1.38;0.40;;;10.60;73.00;;;;;;5103685;28;20501;-60
2022/02/06 11:48:18;;;;;;;1.13;0.45;;;10.60;73.00;;;;;;5093749;28;20040;-58
2022/02/06 11:50:48;;;;;;;1.33;0.60;;;10.60;72.70;;;;;;5094501;28;20075;-58
2022/02/06 11:53:15;;;;;;;3.83;0.45;;;10.60;73.20;;;;;;5087338;28;20477;-59
2022/02/06 11:55:44;;;;;;;1.40;0.50;;;10.60;72.80;;;;;;5113819;28;20088;-57
2022/02/06 11:58:10;;;;;;;2.22;0.55;;;10.60;73.40;;;;;;5087776;28;20044;-61
2022/02/06 12:00:37;;;;;;;1.83;0.57;;;10.70;73.80;;;;;;5108114;28;20098;-57
2022/02/06 12:03:04;;;;;;;1.90;0.50;;;10.70;73.80;;;;;;5093987;28;20136;-64
2022/02/06 12:05:31;;;;;;;2.08;0.40;;;10.80;74.00;;;;;;5093464;28;20036;-64
2022/02/06 12:07:57;;;;;;;1.80;0.52;;;10.80;72.60;;;;;;5094187;28;20059;-57
2022/02/06 12:10:24;;;;;;;1.98;0.57;;;10.70;72.70;;;;;;5093305;28;20048;-60
2022/02/06 12:12:51;;;;;;;3.92;0.60;;;10.70;73.20;;;;;;5094231;28;20044;-61
2022/02/06 12:15:43;;;;;;;4.05;0.80;;;10.70;72.80;;;;;;5093393;28;20476;-65
2022/02/06 12:18:13;;;;;;;2.15;0.60;;;10.60;72.80;;;;;;5092065;28;20144;-65
2022/02/06 12:20:40;;;;;;;3.47;0.68;;;10.70;73.00;;;;;;5095056;28;20411;-57
2022/02/06 12:23:07;;;;;;;2.70;0.63;;;10.70;73.00;;;;;;5093861;28;20036;-61
2022/02/06 12:25:37;;;;;;;4.03;0.80;;;10.80;72.90;;;;;;5093584;28;20074;-60
2022/02/06 12:28:04;;;;;;;4.70;0.90;;;10.70;72.20;;;;;;5093669;28;20343;-59
2022/02/06 12:30:36;;;;;;;2.80;0.80;;;10.70;73.40;;;;;;5093145;28;20067;-62
2022/02/06 12:33:02;;;;;;;3.63;0.70;;;10.80;74.00;;;;;;5093818;28;20044;-57
2022/02/06 12:38:05;;;;;;;3.55;1.23;;;10.80;75.40;;;;;;5093352;28;20040;-57
2022/02/06 12:40:31;;;;;;;3.55;0.82;;;10.80;74.60;;;;;;5093369;28;20064;-62
2022/02/06 12:43:01;;;;;;;4.53;1.05;;;10.70;75.20;;;;;;5090635;28;20544;-56
2022/02/06 12:45:27;;;;;;;5.20;1.10;;;10.70;75.60;;;;;;5094050;28;20032;-56
2022/02/06 12:47:54;;;;;;;4.63;0.90;;;10.80;75.90;;;;;;5092896;28;20040;-59
2022/02/06 12:50:21;;;;;;;4.10;1.40;;;10.80;74.30;;;;;;5093744;28;20436;-53
2022/02/06 12:52:48;;;;;;;4.85;1.30;;;10.80;74.60;;;;;;5093015;28;20127;-55
2022/02/06 12:55:19;;;;;;;3.88;1.00;;;10.80;75.00;;;;;;5090038;28;20730;-58
2022/02/06 12:57:46;;;;;;;5.15;1.00;;;10.90;74.00;;;;;;5096369;28;20486;-57
2022/02/06 13:00:13;;;;;;;6.75;1.25;;;11.00;73.50;;;;;;5091292;28;20476;-58
2022/02/06 13:02:40;;;;;;;5.43;1.35;;;11.10;72.60;;;;;;5094314;28;20036;-57
2022/02/06 13:05:11;;;;;;;5.45;1.60;;;11.10;71.70;;;;;;5094271;28;20046;-54
2022/02/06 13:07:38;;;;;;;8.05;1.25;;;11.20;71.40;;;;;;5093900;28;20039;-57
2022/02/06 13:10:05;;;;;;;8.98;2.90;;;11.10;71.10;;;;;;5090704;28;20093;-60
2022/02/06 13:12:48;;;;;;;7.07;2.10;;;11.10;70.50;;;;;;5087822;28;20041;-55
2022/02/06 13:18:29;;;;;;;10.20;2.33;;;11.10;70.10;;;;;;5091918;28;20040;-61
2022/02/06 13:23:17;;;;;;;12.43;3.90;;;11.10;69.60;;;;;;5089824;28;20062;-61
2022/02/06 13:26:09;;;;;;;12.15;2.63;;;11.10;70.30;;;;;;5093293;28;20059;-58
2022/02/06 13:28:59;;;;;;;14.05;4.65;;;11.20;69.70;;;;;;5087171;28;20032;-54
2022/02/06 13:38:58;;;;;;;11.13;2.45;;;11.10;68.40;;;;;;5092494;28;20383;-52
2022/02/06 13:41:28;;;;;;;7.97;2.40;;;11.10;69.70;;;;;;5093311;28;20127;-58
2022/02/06 13:43:57;;;;;;;13.15;2.60;;;11.10;68.80;;;;;;5093299;28;20138;-60
2022/02/06 13:46:26;;;;;;;9.95;2.40;;;11.10;69.60;;;;;;5093360;28;20036;-55
2022/02/06 13:48:53;;;;;;;7.03;1.67;;;11.20;69.70;;;;;;5092071;28;20048;-55
2022/02/06 13:51:19;;;;;;;9.80;2.10;;;11.20;68.40;;;;;;5097015;28;20517;-59
2022/02/06 13:53:46;;;;;;;9.82;2.35;;;11.30;68.50;;;;;;5096739;28;20043;-58
2022/02/06 13:56:13;;;;;;;9.80;2.13;;;11.30;68.00;;;;;;5078691;28;20352;-56
2022/02/06 13:58:40;;;;;;;8.90;1.95;;;11.40;68.20;;;;;;5095501;28;20063;-60
2022/02/06 14:01:06;;;;;;;7.22;1.90;;;11.40;68.20;;;;;;5096843;28;20040;-54
2022/02/06 14:03:33;;;;;;;10.13;2.30;;;11.50;68.20;;;;;;5096433;28;20052;-55
2022/02/06 14:06:08;;;;;;;9.50;2.20;;;11.40;67.40;;;;;;5095922;28;20505;-58
2022/02/06 14:08:37;;;;;;;9.48;2.20;;;11.50;67.40;;;;;;5115759;28;20100;-58
2022/02/06 14:11:18;;;;;;;7.00;1.60;;;11.50;67.90;;;;;;5116073;28;20540;-59
2022/02/06 14:13:45;;;;;;;4.03;1.13;;;11.50;66.00;;;;;;5116115;28;20047;-61
2022/02/06 14:16:12;;;;;;;5.70;1.75;;;11.50;65.80;;;;;;5116051;28;20071;-60
2022/02/06 14:18:39;;;;;;;6.18;1.40;;;11.50;66.10;;;;;;5111489;28;20486;-57
2022/02/06 14:21:06;;;;;;;6.53;1.63;;;11.40;65.40;;;;;;5096410;28;20070;-62
2022/02/06 14:23:32;;;;;;;10.05;1.55;;;11.40;65.60;;;;;;5096205;28;20067;-54
2022/02/06 14:25:59;;;;;;;6.35;1.70;;;11.40;65.30;;;;;;5096223;28;20040;-62
2022/02/06 14:28:31;;;;;;;7.82;1.50;;;11.40;64.90;;;;;;5096258;28;20044;-53
2022/02/06 14:30:57;;;;;;;5.68;1.30;;;11.40;65.20;;;;;;5077903;28;20044;-55
2022/02/06 14:33:24;;;;;;;6.20;1.20;;;11.40;65.60;;;;;;5096038;28;20455;-58
2022/02/06 14:35:54;;;;;;;6.78;1.40;;;11.40;65.60;;;;;;5096218;28;20075;-57
2022/02/06 14:38:25;;;;;;;6.35;1.70;;;11.40;65.20;;;;;;5095987;28;20066;-58
2022/02/06 14:43:18;;;;;;;7.25;1.35;;;11.50;65.80;;;;;;5097252;28;20044;-62
2022/02/06 14:45:45;;;;;;;6.53;1.27;;;11.50;65.70;;;;;;5115371;28;20367;-54
2022/02/06 14:48:12;;;;;;;4.60;1.17;;;11.60;65.40;;;;;;5115438;28;20093;-62
2022/02/06 14:50:39;;;;;;;4.50;1.05;;;11.60;65.60;;;;;;5090815;28;20484;-62
2022/02/06 14:53:06;;;;;;;6.60;1.10;;;11.50;65.80;;;;;;5110367;28;20568;-57
2022/02/06 14:55:33;;;;;;;4.95;1.20;;;11.50;67.10;;;;;;5114137;28;20130;-57
2022/02/06 14:57:59;;;;;;;4.97;1.35;;;11.40;67.60;;;;;;5096505;28;20117;-55
2022/02/06 15:00:26;;;;;;;6.30;1.17;;;11.30;67.90;;;;;;5115226;28;20062;-56
2022/02/06 15:02:53;;;;;;;5.38;1.00;;;11.20;69.10;;;;;;5099221;28;20396;-49
2022/02/06 15:05:20;;;;;;;6.88;1.95;;;11.10;69.70;;;;;;5095347;28;20040;-58
2022/02/06 15:07:46;;;;;;;5.93;1.17;;;11.10;69.70;;;;;;5093985;28;20548;-59
2022/02/06 15:10:13;;;;;;;4.70;1.15;;;10.90;73.20;;;;;;5094349;28;20406;-62
2022/02/06 15:12:40;;;;;;;5.20;1.08;;;10.70;75.50;;;;;;5095650;28;20059;-57
2022/02/06 15:15:08;;;;;;;4.22;0.88;;;10.50;75.30;;;;;;5094173;28;20036;-64
2022/02/06 15:17:35;;;;;;;2.45;0.90;;;10.50;75.30;;;;;;5093884;28;20044;-62
2022/02/06 15:20:01;;;;;;;4.63;1.02;;;10.50;75.30;;;;;;5095221;28;20036;-58
2022/02/06 15:22:28;;;;;;;3.90;0.93;;;10.40;75.30;;;;;;5094536;28;20047;-65
2022/02/06 15:24:55;;;;;;;4.22;0.90;;;10.40;75.00;;;;;;5093504;28;20051;-57
2022/02/06 15:27:22;;;;;;;4.80;1.75;;;10.40;74.90;;;;;;5091599;28;20371;-61
2022/02/06 15:29:48;;;;;;;4.68;1.00;;;10.40;74.80;;;;;;5092838;28;20040;-55
2022/02/06 15:32:18;;;;;;;4.40;1.15;;;10.40;75.00;;;;;;5087017;28;20044;-52
2022/02/06 15:34:45;;;;;;;3.03;0.90;;;10.40;74.60;;;;;;5088666;28;20040;-56
2022/02/06 15:37:14;;;;;;;3.85;1.30;;;10.40;74.70;;;;;;5112952;28;20489;-54
2022/02/06 15:39:41;;;;;;;4.78;1.00;;;10.40;75.20;;;;;;5112971;28;20047;-58
2022/02/06 15:42:12;;;;;;;3.03;1.00;;;10.30;75.20;;;;;;5114292;28;20089;-61
2022/02/06 15:44:40;;;;;;;2.55;1.00;;;10.30;75.50;;;;;;5107245;28;20036;-56
2022/02/06 15:47:06;;;;;;;4.55;1.50;;;10.30;75.80;;;;;;5093199;28;20131;-52
2022/02/06 15:49:34;;;;;;;3.35;0.88;;;10.30;75.90;;;;;;5094482;28;20044;-58
2022/02/06 15:52:01;;;;;;;4.07;0.93;;;10.30;76.50;;;;;;5094655;28;20127;-53
2022/02/06 15:54:27;;;;;;;4.45;1.00;;;10.30;76.90;;;;;;5094243;28;20048;-61
2022/02/06 15:56:54;;;;;;;3.63;0.95;;;10.30;77.00;;;;;;5092969;28;20109;-58
2022/02/06 15:59:21;;;;;;;6.97;1.30;;;10.30;77.30;;;;;;5094438;28;20047;-57
2022/02/06 16:01:49;;;;;;;10.18;3.75;;;10.30;77.00;;;;;;5094533;28;20526;-61
2022/02/06 16:04:16;;;;;;;9.57;1.77;;;10.30;77.00;;;;;;5100355;28;20051;-58
2022/02/06 16:06:43;;;;;;;6.65;1.42;;;10.30;78.10;;;;;;5112294;28;20043;-61
2022/02/06 16:09:10;;;;;;;4.57;1.20;;;10.20;79.70;;;;;;5107261;28;20036;-54
2022/02/06 16:11:37;;;;;;;5.43;1.25;;;10.20;79.60;;;;;;5091499;28;20048;-58
2022/02/06 16:14:03;;;;;;;7.82;1.20;;;10.10;79.70;;;;;;5092965;28;20406;-64
2022/02/06 16:16:30;;;;;;;11.05;3.53;;;10.10;79.40;;;;;;5095586;28;20445;-60
2022/02/06 16:18:57;;;;;;;3.47;0.90;;;10.10;79.00;;;;;;5089055;28;20032;-59
2022/02/06 16:21:26;;;;;;;5.25;1.42;;;10.10;80.20;;;;;;5088308;28;20040;-62
2022/02/06 16:23:55;;;;;;;6.22;2.40;;;10.00;81.70;;;;;;5094873;28;20407;-61
2022/02/06 16:26:22;;;;;;;5.47;1.10;;;9.90;82.30;;;;;;5088644;28;20048;-56
2022/02/06 16:28:52;;;;;;;2.67;0.90;;;9.90;81.80;;;;;;5095323;28;20047;-55
2022/02/06 16:31:19;;;;;;;9.73;2.40;;;9.80;81.90;;;;;;5093612;28;20097;-56
2022/02/06 16:33:46;;;;;;;3.92;1.00;;;9.90;81.00;;;;;;5094712;28;20434;-55
2022/02/06 16:36:13;;;;;;;5.38;1.60;;;9.80;80.50;;;;;;5094024;28;20105;-59
2022/02/06 16:38:40;;;;;;;5.38;1.02;;;9.90;79.80;;;;;;5094179;28;20530;-53
2022/02/06 16:41:07;;;;;;;3.15;0.95;;;9.90;79.30;;;;;;5093585;28;20040;-61
2022/02/06 16:43:35;;;;;;;3.72;0.90;;;9.80;79.60;;;;;;5093942;28;20047;-63
2022/02/06 16:46:02;;;;;;;4.05;1.30;;;9.70;80.60;;;;;;5093829;28;20491;-59
2022/02/06 16:48:30;;;;;;;5.05;1.10;;;9.70;80.90;;;;;;5092587;28;20054;-61
2022/02/06 16:50:57;;;;;;;4.65;1.10;;;9.60;81.70;;;;;;5093155;28;20409;-62
2022/02/06 16:53:24;;;;;;;4.03;0.90;;;9.60;82.50;;;;;;5093738;28;20040;-59
2022/02/06 16:55:51;;;;;;;3.55;1.02;;;9.50;82.80;;;;;;5093697;28;20036;-55
2022/02/06 16:58:18;;;;;;;3.00;1.08;;;9.50;83.10;;;;;;5093283;28;20047;-58
2022/02/06 17:00:46;;;;;;;7.00;1.40;;;9.50;83.60;;;;;;5087129;28;20123;-57
2022/02/06 17:03:12;;;;;;;5.95;1.80;;;9.40;83.20;;;;;;5092195;28;20123;-56
2022/02/06 17:05:39;;;;;;;4.20;1.10;;;9.40;83.30;;;;;;5086752;28;20127;-56
2022/02/06 17:08:06;;;;;;;2.70;0.95;;;9.40;83.70;;;;;;5085471;28;20070;-54
2022/02/06 17:10:33;;;;;;;5.45;1.10;;;9.40;83.90;;;;;;5095034;28;20097;-57
2022/02/06 17:13:00;;;;;;;4.93;1.10;;;9.40;83.40;;;;;;5112944;28;20159;-58
2022/02/06 17:15:26;;;;;;;7.80;2.70;;;9.30;83.20;;;;;;5112666;28;20047;-58
2022/02/06 17:17:54;;;;;;;8.55;1.98;;;9.30;83.50;;;;;;5112408;28;20380;-57
2022/02/06 17:20:20;;;;;;;6.57;2.90;;;9.30;83.00;;;;;;5112588;28;20046;-60
2022/02/06 17:22:47;;;;;;;5.57;2.63;;;9.40;82.60;;;;;;5112562;28;20032;-55
2022/02/06 17:25:14;;;;;;;9.50;4.93;;;9.40;82.50;;;;;;5115358;28;20553;-57
2022/02/06 17:27:40;;;;;;;7.50;4.40;;;9.40;82.00;;;;;;5116645;28;20040;-55
2022/02/06 17:30:07;;;;;;;7.35;3.25;;;9.40;82.00;;;;;;5116797;28;20039;-60
2022/02/06 17:32:34;;;;;;;4.85;1.50;;;9.40;81.80;;;;;;5117080;28;20040;-61
2022/02/06 17:35:01;;;;;;;4.38;1.20;;;9.50;81.50;;;;;;5116512;28;20067;-55
2022/02/06 17:37:28;;;;;;;5.18;1.20;;;9.40;81.40;;;;;;5116580;28;20035;-61
2022/02/06 17:39:56;;;;;;;6.15;1.23;;;9.40;80.90;;;;;;5104797;28;20042;-58
2022/02/06 17:42:23;;;;;;;4.15;1.42;;;9.40;81.30;;;;;;5097127;28;20051;-60
2022/02/06 17:44:52;;;;;;;5.82;1.40;;;9.40;81.00;;;;;;5096788;28;20131;-59
2022/02/06 17:47:19;;;;;;;4.00;1.30;;;9.40;81.00;;;;;;5095811;28;20044;-61
2022/02/06 17:49:46;;;;;;;4.90;1.10;;;9.40;81.00;;;;;;5096922;28;20136;-59
2022/02/06 17:52:12;;;;;;;5.00;1.45;;;9.40;80.50;;;;;;5096860;28;20048;-54
2022/02/06 17:54:43;;;;;;;2.80;1.30;;;9.40;80.80;;;;;;5096673;28;20399;-54
2022/02/06 17:57:10;;;;;;;4.38;1.23;;;9.40;80.50;;;;;;5096759;28;20100;-58
2022/02/06 17:59:37;;;;;;;6.35;1.58;;;9.40;80.30;;;;;;5096634;28;20036;-61
2022/02/06 18:02:09;;;;;;;4.35;1.45;;;9.30;80.10;;;;;;5096501;28;20040;-61
2022/02/06 18:04:36;;;;;;;6.07;1.60;;;9.20;80.10;;;;;;5095506;28;20056;-56
2022/02/06 18:07:03;;;;;;;2.60;1.23;;;9.20;80.30;;;;;;5096563;28;20487;-58
2022/02/06 18:09:30;;;;;;;5.35;1.33;;;9.10;80.20;;;;;;5095244;28;20044;-62
2022/02/06 18:11:56;;;;;;;6.03;1.38;;;9.10;80.10;;;;;;5096384;28;20085;-59
2022/02/06 18:14:23;;;;;;;4.80;1.00;;;9.10;79.10;;;;;;5096401;28;20119;-59
2022/02/06 18:16:50;;;;;;;3.88;1.40;;;9.00;79.00;;;;;;5096669;28;20063;-57
2022/02/06 18:19:17;;;;;;;5.35;1.50;;;9.00;78.90;;;;;;5096388;28;20097;-61
2022/02/06 18:21:44;;;;;;;5.32;1.50;;;9.00;79.00;;;;;;5096320;28;20047;-56
2022/02/06 18:24:10;;;;;;;5.38;1.80;;;9.00;79.30;;;;;;5096134;28;20491;-58
2022/02/06 18:26:51;;;;;;;8.68;3.17;;;8.90;78.30;;;;;;5096193;28;20097;-52
2022/02/06 18:29:18;;;;;;;6.43;2.15;;;8.90;77.90;;;;;;5096257;28;20174;-60
2022/02/06 18:31:44;;;;;;;6.00;1.83;;;8.90;77.90;;;;;;5096026;28;20046;-57
2022/02/06 18:34:11;;;;;;;7.47;2.90;;;8.80;75.90;;;;;;5096005;28;20495;-58
2022/02/06 18:36:38;;;;;;;13.32;3.80;;;8.80;75.40;;;;;;5095516;28;20450;-61
2022/02/06 18:39:05;;;;;;;6.55;2.13;;;8.80;75.30;;;;;;5095908;28;20460;-56
2022/02/06 18:41:32;;;;;;;6.75;2.15;;;8.80;74.40;;;;;;5089378;28;20047;-60
2022/02/06 18:43:59;;;;;;;6.93;1.33;;;8.70;74.40;;;;;;5089141;28;20058;-58
2022/02/06 18:46:26;;;;;;;6.13;1.65;;;8.70;73.90;;;;;;5089145;28;20491;-62
2022/02/06 18:48:53;;;;;;;7.45;2.53;;;8.70;74.50;;;;;;5089081;28;20148;-55
2022/02/06 18:51:20;;;;;;;3.80;1.35;;;8.60;74.10;;;;;;5115438;28;20530;-64
2022/02/06 18:53:47;;;;;;;6.18;2.50;;;8.60;74.20;;;;;;5114134;28;20131;-53
2022/02/06 18:56:16;;;;;;;7.25;1.50;;;8.60;73.40;;;;;;5114944;28;20043;-60
2022/02/06 18:58:43;;;;;;;10.65;3.63;;;8.60;71.80;;;;;;5088876;28;20058;-64
2022/02/06 19:01:12;;;;;;;6.15;1.90;;;8.60;71.20;;;;;;5089164;28;20036;-63
2022/02/06 19:03:39;;;;;;;7.10;2.65;;;8.60;71.10;;;;;;5087744;28;20106;-56
2022/02/06 19:06:06;;;;;;;7.78;2.15;;;8.50;71.00;;;;;;5088800;28;20147;-63
2022/02/06 19:08:41;;;;;;;7.45;3.33;;;8.50;71.60;;;;;;5088525;28;20059;-57
2022/02/06 19:11:13;;;;;;;9.73;3.30;;;8.40;72.00;;;;;;5095543;28;20510;-60
2022/02/06 19:13:40;;;;;;;5.57;1.60;;;8.40;72.50;;;;;;5095388;28;20043;-60
2022/02/06 19:16:07;;;;;;;5.05;1.23;;;8.30;73.20;;;;;;5095043;28;20115;-54
2022/02/06 19:18:34;;;;;;;6.88;1.92;;;8.30;74.00;;;;;;5095085;28;20043;-57
2022/02/06 19:21:00;;;;;;;5.50;1.38;;;8.20;74.60;;;;;;5095106;28;20071;-52
2022/02/06 19:23:27;;;;;;;4.15;1.17;;;8.10;75.30;;;;;;5095043;28;20043;-57
2022/02/06 19:25:57;;;;;;;6.10;1.10;;;8.10;75.80;;;;;;5094993;28;20509;-59
2022/02/06 19:28:25;;;;;;;5.72;1.88;;;8.00;76.40;;;;;;5093732;28;20036;-60
2022/02/06 19:30:51;;;;;;;6.70;2.25;;;8.00;77.00;;;;;;5093651;28;20040;-59
2022/02/06 19:33:18;;;;;;;4.13;1.30;;;7.90;77.00;;;;;;5094846;28;20044;-62
2022/02/06 19:35:50;;;;;;;3.67;1.67;;;7.90;77.40;;;;;;5094763;28;20036;-59
2022/02/06 19:38:17;;;;;;;5.82;1.30;;;7.80;77.60;;;;;;5095031;28;20055;-61
2022/02/06 19:40:44;;;;;;;5.80;1.30;;;7.80;77.50;;;;;;5094809;28;20195;-59
2022/02/06 19:43:11;;;;;;;4.68;1.80;;;7.80;77.90;;;;;;5095132;28;20499;-56
2022/02/06 19:45:38;;;;;;;5.45;1.48;;;7.70;77.10;;;;;;5114109;28;20521;-62
2022/02/06 19:48:05;;;;;;;6.65;1.50;;;7.70;76.50;;;;;;5113724;28;20043;-62
2022/02/06 19:50:31;;;;;;;7.13;2.42;;;7.70;75.50;;;;;;5114015;27;20429;-58
2022/02/06 19:52:58;;;;;;;6.55;2.30;;;7.70;74.40;;;;;;5114233;28;20391;-56
2022/02/06 19:55:26;;;;;;;7.20;1.80;;;7.70;74.40;;;;;;5113904;28;20063;-61
2022/02/06 19:57:53;;;;;;;4.78;1.30;;;7.70;73.30;;;;;;5100573;28;20044;-55
2022/02/06 20:00:19;;;;;;;9.13;2.10;;;7.60;72.90;;;;;;5114409;28;20031;-58
2022/02/06 20:02:46;;;;;;;7.88;2.38;;;7.60;72.50;;;;;;5102246;28;20087;-60
2022/02/06 20:05:13;;;;;;;8.90;2.95;;;7.60;71.60;;;;;;5094563;28;20044;-60
2022/02/06 20:07:40;;;;;;;8.50;2.45;;;7.60;71.90;;;;;;5093716;28;20055;-59
2022/02/06 20:10:09;;;;;;;11.52;2.53;;;7.60;71.50;;;;;;5094102;28;20043;-56
2022/02/06 20:12:37;;;;;;;9.32;2.30;;;7.60;70.40;;;;;;5094216;28;20052;-59
2022/02/06 20:15:04;;;;;;;11.30;2.08;;;7.60;70.60;;;;;;5093407;28;20032;-58
2022/02/06 20:17:32;;;;;;;9.98;2.15;;;7.60;69.90;;;;;;5093956;28;20483;-60
2022/02/06 20:20:00;;;;;;;7.20;2.03;;;7.60;68.90;;;;;;5093533;28;20089;-58
2022/02/06 20:22:26;;;;;;;11.18;2.17;;;7.60;68.70;;;;;;5093955;28;20052;-61
2022/02/06 20:24:53;;;;;;;7.50;2.20;;;7.60;68.80;;;;;;5094203;28;20376;-63
2022/02/06 20:27:20;;;;;;;7.40;2.05;;;7.60;69.10;;;;;;5093191;28;20035;-58
2022/02/06 20:29:47;;;;;;;11.05;2.50;;;7.50;69.00;;;;;;5093943;28;20372;-65
2022/02/06 20:32:13;;;;;;;11.68;3.03;;;7.50;68.40;;;;;;5093068;28;20039;-62
2022/02/06 20:34:40;;;;;;;12.27;3.95;;;7.50;68.20;;;;;;5087154;28;20044;-57
2022/02/06 20:37:07;;;;;;;7.07;2.03;;;7.40;68.60;;;;;;5096717;28;20039;-63
2022/02/06 20:39:34;;;;;;;14.48;3.53;;;7.40;67.60;;;;;;5100650;28;20044;-60
2022/02/06 20:42:01;;;;;;;8.88;2.50;;;7.40;67.90;;;;;;5113066;28;20036;-53
2022/02/06 20:44:28;;;;;;;16.70;4.50;;;7.40;68.10;;;;;;5096973;28;20068;-60
2022/02/06 20:46:54;;;;;;;11.68;3.22;;;7.40;68.70;;;;;;5093577;28;20063;-64
2022/02/06 20:49:22;;;;;;;10.15;3.22;;;7.30;68.40;;;;;;5099820;28;20086;-55
2022/02/06 20:51:48;;;;;;;13.10;4.43;;;7.30;68.70;;;;;;5093678;28;20483;-54
2022/02/06 20:54:15;;;;;;;12.95;4.68;;;7.30;69.10;;;;;;5093633;28;20093;-58
2022/02/06 20:56:42;;;;;;;14.48;5.70;;;7.30;69.50;;;;;;5092587;28;20068;-62
2022/02/06 20:59:09;;;;;;;12.65;3.60;;;7.30;69.80;;;;;;5093324;28;20490;-57
2022/02/06 21:01:36;;;;;;;13.60;4.20;;;7.20;69.70;;;;;;5093389;28;20039;-59
2022/02/06 21:04:03;;;;;;;13.02;3.80;;;7.20;69.50;;;;;;5092692;28;20530;-58
2022/02/06 21:06:29;;;;;;;14.88;3.13;;;7.20;69.30;;;;;;5093384;28;20055;-57
2022/02/06 21:08:56;;;;;;;13.15;4.13;;;7.20;68.20;;;;;;5092595;28;20059;-56
2022/02/06 21:11:23;;;;;;;16.10;3.92;;;7.20;68.20;;;;;;5093383;28;20040;-55
2022/02/06 21:13:50;;;;;;;13.60;3.30;;;7.20;67.70;;;;;;5093021;28;20032;-61
2022/02/06 21:16:16;;;;;;;9.73;2.30;;;7.20;66.50;;;;;;5093224;28;20044;-53
2022/02/06 21:18:43;;;;;;;8.65;2.55;;;7.20;66.00;;;;;;5092333;28;20047;-58